sensor_id;sensor_type;location;lat;lon;timestamp;P1;durP1;ratioP1;P2;durP2;ratioP2
12925;SDS011;6529;50.566;9.774;2023-09-08T00:01:20;4.47;;;3.80;;
12925;SDS011;6529;50.566;9.774;2023-09-08T00:03:46;4.37;;;3.77;;
12925;SDS011;6529;50.566;9.774;2023-09-08T00:06:11;4.50;;;4.10;;
12925;SDS011;6529;50.566;9.774;2023-09-08T00:08:37;4.90;;;4.00;;
12925;SDS011;6529;50.566;9.774;2023-09-08T00:11:02;5.23;;;3.80;;
12925;SDS011;6529;50.566;9.774;2023-09-08T00:13:29;5.87;;;3.87;;
12925;SDS011;6529;50.566;9.774;2023-09-08T00:15:55;3.73;;;3.43;;
12925;SDS011;6529;50.566;9.774;2023-09-08T00:18:21;3.97;;;3.57;;
12925;SDS011;6529;50.566;9.774;2023-09-08T00:20:46;4.30;;;3.73;;
12925;SDS011;6529;50.566;9.774;2023-09-08T00:23:12;5.37;;;3.90;;
12925;SDS011;6529;50.566;9.774;2023-09-08T00:25:37;4.23;;;3.63;;
12925;SDS011;6529;50.566;9.774;2023-09-08T00:28:03;5.33;;;3.40;;
12925;SDS011;6529;50.566;9.774;2023-09-08T00:30:29;4.97;;;3.73;;
12925;SDS011;6529;50.566;9.774;2023-09-08T00:32:54;4.50;;;3.60;;
12925;SDS011;6529;50.566;9.774;2023-09-08T00:35:20;3.93;;;3.57;;
12925;SDS011;6529;50.566;9.774;2023-09-08T00:37:45;5.60;;;4.10;;
12925;SDS011;6529;50.566;9.774;2023-09-08T00:40:11;4.10;;;3.60;;
12925;SDS011;6529;50.566;9.774;2023-09-08T00:42:37;5.10;;;3.97;;
12925;SDS011;6529;50.566;9.774;2023-09-08T00:45:02;4.40;;;4.00;;
12925;SDS011;6529;50.566;9.774;2023-09-08T00:47:29;4.40;;;3.70;;
12925;SDS011;6529;50.566;9.774;2023-09-08T00:49:54;4.77;;;3.33;;
12925;SDS011;6529;50.566;9.774;2023-09-08T00:52:20;5.57;;;3.60;;
12925;SDS011;6529;50.566;9.774;2023-09-08T00:54:46;4.13;;;3.83;;
12925;SDS011;6529;50.566;9.774;2023-09-08T00:57:12;5.30;;;4.10;;
12925;SDS011;6529;50.566;9.774;2023-09-08T00:59:37;5.67;;;3.80;;
12925;SDS011;6529;50.566;9.774;2023-09-08T01:02:03;4.47;;;4.07;;
12925;SDS011;6529;50.566;9.774;2023-09-08T01:04:29;4.23;;;3.83;;
12925;SDS011;6529;50.566;9.774;2023-09-08T01:06:55;4.47;;;3.90;;
12925;SDS011;6529;50.566;9.774;2023-09-08T01:09:21;4.70;;;4.20;;
12925;SDS011;6529;50.566;9.774;2023-09-08T01:11:49;4.60;;;3.57;;
12925;SDS011;6529;50.566;9.774;2023-09-08T01:14:17;6.40;;;3.90;;
12925;SDS011;6529;50.566;9.774;2023-09-08T01:16:44;4.77;;;4.27;;
12925;SDS011;6529;50.566;9.774;2023-09-08T01:19:10;5.83;;;4.50;;
12925;SDS011;6529;50.566;9.774;2023-09-08T01:27:21;4.43;;;3.80;;
12925;SDS011;6529;50.566;9.774;2023-09-08T01:29:50;5.67;;;3.87;;
12925;SDS011;6529;50.566;9.774;2023-09-08T01:32:18;4.77;;;3.97;;
12925;SDS011;6529;50.566;9.774;2023-09-08T01:34:44;4.13;;;3.70;;
12925;SDS011;6529;50.566;9.774;2023-09-08T01:37:10;5.97;;;3.80;;
12925;SDS011;6529;50.566;9.774;2023-09-08T01:39:36;4.40;;;4.00;;
12925;SDS011;6529;50.566;9.774;2023-09-08T01:42:01;5.30;;;3.63;;
12925;SDS011;6529;50.566;9.774;2023-09-08T01:44:27;3.93;;;3.63;;
12925;SDS011;6529;50.566;9.774;2023-09-08T01:46:53;4.67;;;3.93;;
12925;SDS011;6529;50.566;9.774;2023-09-08T01:49:22;4.47;;;4.03;;
12925;SDS011;6529;50.566;9.774;2023-09-08T01:51:48;4.87;;;4.37;;
12925;SDS011;6529;50.566;9.774;2023-09-08T01:54:13;5.17;;;3.80;;
12925;SDS011;6529;50.566;9.774;2023-09-08T01:56:39;4.80;;;4.10;;
12925;SDS011;6529;50.566;9.774;2023-09-08T01:59:04;5.77;;;3.90;;
12925;SDS011;6529;50.566;9.774;2023-09-08T02:01:30;4.40;;;3.90;;
12925;SDS011;6529;50.566;9.774;2023-09-08T02:03:56;5.37;;;3.73;;
12925;SDS011;6529;50.566;9.774;2023-09-08T02:06:21;6.13;;;4.37;;
12925;SDS011;6529;50.566;9.774;2023-09-08T02:08:47;4.43;;;4.03;;
12925;SDS011;6529;50.566;9.774;2023-09-08T02:11:12;4.60;;;4.10;;
12925;SDS011;6529;50.566;9.774;2023-09-08T02:13:38;4.90;;;4.40;;
12925;SDS011;6529;50.566;9.774;2023-09-08T02:16:06;5.43;;;4.00;;
12925;SDS011;6529;50.566;9.774;2023-09-08T02:18:32;4.73;;;4.27;;
12925;SDS011;6529;50.566;9.774;2023-09-08T02:20:57;5.30;;;4.40;;
12925;SDS011;6529;50.566;9.774;2023-09-08T02:23:23;4.30;;;3.90;;
12925;SDS011;6529;50.566;9.774;2023-09-08T02:25:49;4.87;;;4.37;;
12925;SDS011;6529;50.566;9.774;2023-09-08T02:28:14;5.20;;;4.13;;
12925;SDS011;6529;50.566;9.774;2023-09-08T02:30:40;4.40;;;4.00;;
12925;SDS011;6529;50.566;9.774;2023-09-08T02:33:05;4.90;;;4.33;;
12925;SDS011;6529;50.566;9.774;2023-09-08T02:35:35;4.00;;;3.70;;
12925;SDS011;6529;50.566;9.774;2023-09-08T02:38:02;4.63;;;4.23;;
12925;SDS011;6529;50.566;9.774;2023-09-08T02:40:28;5.07;;;4.57;;
12925;SDS011;6529;50.566;9.774;2023-09-08T02:42:54;5.57;;;4.23;;
12925;SDS011;6529;50.566;9.774;2023-09-08T02:45:19;5.23;;;4.27;;
12925;SDS011;6529;50.566;9.774;2023-09-08T02:47:45;4.30;;;3.90;;
12925;SDS011;6529;50.566;9.774;2023-09-08T02:50:10;4.63;;;4.00;;
12925;SDS011;6529;50.566;9.774;2023-09-08T02:52:36;3.87;;;3.53;;
12925;SDS011;6529;50.566;9.774;2023-09-08T02:55:01;5.63;;;4.30;;
12925;SDS011;6529;50.566;9.774;2023-09-08T02:57:27;5.30;;;4.00;;
12925;SDS011;6529;50.566;9.774;2023-09-08T02:59:53;5.73;;;4.53;;
12925;SDS011;6529;50.566;9.774;2023-09-08T03:02:21;5.17;;;4.13;;
12925;SDS011;6529;50.566;9.774;2023-09-08T03:04:48;5.07;;;4.57;;
12925;SDS011;6529;50.566;9.774;2023-09-08T03:07:13;4.90;;;4.50;;
12925;SDS011;6529;50.566;9.774;2023-09-08T03:09:39;6.73;;;4.20;;
12925;SDS011;6529;50.566;9.774;2023-09-08T03:12:04;4.30;;;3.83;;
12925;SDS011;6529;50.566;9.774;2023-09-08T03:14:30;5.17;;;4.03;;
12925;SDS011;6529;50.566;9.774;2023-09-08T03:16:55;5.40;;;4.13;;
12925;SDS011;6529;50.566;9.774;2023-09-08T03:19:21;4.60;;;4.03;;
12925;SDS011;6529;50.566;9.774;2023-09-08T03:21:46;4.87;;;4.40;;
12925;SDS011;6529;50.566;9.774;2023-09-08T03:24:12;5.20;;;4.20;;
12925;SDS011;6529;50.566;9.774;2023-09-08T03:26:37;4.63;;;4.20;;
12925;SDS011;6529;50.566;9.774;2023-09-08T03:29:05;5.17;;;4.10;;
12925;SDS011;6529;50.566;9.774;2023-09-08T03:31:31;5.13;;;4.27;;
12925;SDS011;6529;50.566;9.774;2023-09-08T03:33:56;4.77;;;4.30;;
12925;SDS011;6529;50.566;9.774;2023-09-08T03:36:22;4.87;;;4.37;;
12925;SDS011;6529;50.566;9.774;2023-09-08T03:38:48;5.20;;;4.50;;
12925;SDS011;6529;50.566;9.774;2023-09-08T03:41:14;4.20;;;3.90;;
12925;SDS011;6529;50.566;9.774;2023-09-08T03:43:39;5.27;;;4.20;;
12925;SDS011;6529;50.566;9.774;2023-09-08T03:46:05;4.80;;;4.30;;
12925;SDS011;6529;50.566;9.774;2023-09-08T03:48:30;4.90;;;4.23;;
12925;SDS011;6529;50.566;9.774;2023-09-08T03:50:56;4.77;;;4.37;;
12925;SDS011;6529;50.566;9.774;2023-09-08T03:53:22;4.70;;;4.20;;
12925;SDS011;6529;50.566;9.774;2023-09-08T03:55:47;4.70;;;4.30;;
12925;SDS011;6529;50.566;9.774;2023-09-08T03:58:13;4.77;;;4.37;;
12925;SDS011;6529;50.566;9.774;2023-09-08T04:00:38;5.07;;;4.57;;
12925;SDS011;6529;50.566;9.774;2023-09-08T04:03:04;4.80;;;4.30;;
12925;SDS011;6529;50.566;9.774;2023-09-08T04:05:29;4.63;;;4.17;;
12925;SDS011;6529;50.566;9.774;2023-09-08T04:07:55;6.07;;;4.33;;
12925;SDS011;6529;50.566;9.774;2023-09-08T04:10:20;6.40;;;4.07;;
12925;SDS011;6529;50.566;9.774;2023-09-08T04:12:46;5.77;;;4.53;;
12925;SDS011;6529;50.566;9.774;2023-09-08T04:15:11;4.60;;;4.20;;
12925;SDS011;6529;50.566;9.774;2023-09-08T04:17:37;4.80;;;4.40;;
12925;SDS011;6529;50.566;9.774;2023-09-08T04:20:03;5.00;;;4.60;;
12925;SDS011;6529;50.566;9.774;2023-09-08T04:22:30;4.47;;;4.07;;
12925;SDS011;6529;50.566;9.774;2023-09-08T04:24:56;5.37;;;4.40;;
12925;SDS011;6529;50.566;9.774;2023-09-08T04:27:22;5.87;;;4.10;;
12925;SDS011;6529;50.566;9.774;2023-09-08T04:29:48;5.43;;;4.40;;
12925;SDS011;6529;50.566;9.774;2023-09-08T04:32:14;4.77;;;4.30;;
12925;SDS011;6529;50.566;9.774;2023-09-08T04:34:40;5.70;;;4.60;;
12925;SDS011;6529;50.566;9.774;2023-09-08T04:37:06;4.83;;;4.43;;
12925;SDS011;6529;50.566;9.774;2023-09-08T04:39:33;5.27;;;4.70;;
12925;SDS011;6529;50.566;9.774;2023-09-08T04:42:00;6.40;;;4.53;;
12925;SDS011;6529;50.566;9.774;2023-09-08T04:44:26;5.63;;;4.83;;
12925;SDS011;6529;50.566;9.774;2023-09-08T04:46:52;4.70;;;4.20;;
12925;SDS011;6529;50.566;9.774;2023-09-08T04:49:19;5.13;;;4.53;;
12925;SDS011;6529;50.566;9.774;2023-09-08T04:51:44;4.80;;;4.30;;
12925;SDS011;6529;50.566;9.774;2023-09-08T04:54:10;4.83;;;4.17;;
12925;SDS011;6529;50.566;9.774;2023-09-08T04:56:35;4.53;;;4.13;;
12925;SDS011;6529;50.566;9.774;2023-09-08T04:59:01;6.47;;;4.33;;
12925;SDS011;6529;50.566;9.774;2023-09-08T05:01:27;5.00;;;4.40;;
12925;SDS011;6529;50.566;9.774;2023-09-08T05:03:54;5.67;;;4.27;;
12925;SDS011;6529;50.566;9.774;2023-09-08T05:06:20;6.00;;;4.93;;
12925;SDS011;6529;50.566;9.774;2023-09-08T05:08:46;5.00;;;4.40;;
12925;SDS011;6529;50.566;9.774;2023-09-08T05:11:11;4.63;;;4.23;;
12925;SDS011;6529;50.566;9.774;2023-09-08T05:13:37;4.60;;;4.20;;
12925;SDS011;6529;50.566;9.774;2023-09-08T05:16:03;4.90;;;4.40;;
12925;SDS011;6529;50.566;9.774;2023-09-08T05:18:39;4.87;;;4.37;;
12925;SDS011;6529;50.566;9.774;2023-09-08T05:21:05;4.80;;;4.27;;
12925;SDS011;6529;50.566;9.774;2023-09-08T05:23:31;4.77;;;4.20;;
12925;SDS011;6529;50.566;9.774;2023-09-08T05:25:56;4.80;;;4.30;;
12925;SDS011;6529;50.566;9.774;2023-09-08T05:28:22;4.97;;;4.13;;
12925;SDS011;6529;50.566;9.774;2023-09-08T05:30:50;5.57;;;4.40;;
12925;SDS011;6529;50.566;9.774;2023-09-08T05:33:16;6.67;;;4.60;;
12925;SDS011;6529;50.566;9.774;2023-09-08T05:35:42;5.13;;;4.40;;
12925;SDS011;6529;50.566;9.774;2023-09-08T05:38:08;6.43;;;4.80;;
12925;SDS011;6529;50.566;9.774;2023-09-08T05:40:34;4.83;;;4.43;;
12925;SDS011;6529;50.566;9.774;2023-09-08T05:42:59;5.67;;;4.37;;
12925;SDS011;6529;50.566;9.774;2023-09-08T05:45:25;4.00;;;3.60;;
12925;SDS011;6529;50.566;9.774;2023-09-08T05:47:51;4.60;;;4.20;;
12925;SDS011;6529;50.566;9.774;2023-09-08T05:50:17;4.33;;;3.93;;
12925;SDS011;6529;50.566;9.774;2023-09-08T05:52:43;4.97;;;4.47;;
12925;SDS011;6529;50.566;9.774;2023-09-08T05:55:08;4.57;;;4.17;;
12925;SDS011;6529;50.566;9.774;2023-09-08T05:57:34;5.53;;;4.30;;
12925;SDS011;6529;50.566;9.774;2023-09-08T06:00:01;4.53;;;4.13;;
12925;SDS011;6529;50.566;9.774;2023-09-08T06:02:28;6.17;;;4.97;;
12925;SDS011;6529;50.566;9.774;2023-09-08T06:04:54;5.73;;;4.77;;
12925;SDS011;6529;50.566;9.774;2023-09-08T06:07:21;5.80;;;5.03;;
12925;SDS011;6529;50.566;9.774;2023-09-08T06:09:47;6.27;;;5.27;;
12925;SDS011;6529;50.566;9.774;2023-09-08T06:12:13;6.20;;;5.00;;
12925;SDS011;6529;50.566;9.774;2023-09-08T06:14:38;5.00;;;4.50;;
12925;SDS011;6529;50.566;9.774;2023-09-08T06:17:04;5.90;;;5.33;;
12925;SDS011;6529;50.566;9.774;2023-09-08T06:19:29;7.60;;;5.37;;
12925;SDS011;6529;50.566;9.774;2023-09-08T06:21:55;6.80;;;5.50;;
12925;SDS011;6529;50.566;9.774;2023-09-08T06:24:20;6.07;;;5.47;;
12925;SDS011;6529;50.566;9.774;2023-09-08T06:26:46;5.70;;;5.10;;
12925;SDS011;6529;50.566;9.774;2023-09-08T06:29:12;6.97;;;5.27;;
12925;SDS011;6529;50.566;9.774;2023-09-08T06:31:37;6.20;;;5.60;;
12925;SDS011;6529;50.566;9.774;2023-09-08T06:34:03;5.90;;;4.70;;
12925;SDS011;6529;50.566;9.774;2023-09-08T06:36:28;6.00;;;5.40;;
12925;SDS011;6529;50.566;9.774;2023-09-08T06:38:54;6.20;;;5.60;;
12925;SDS011;6529;50.566;9.774;2023-09-08T06:41:19;7.57;;;5.40;;
12925;SDS011;6529;50.566;9.774;2023-09-08T06:43:45;7.00;;;5.70;;
12925;SDS011;6529;50.566;9.774;2023-09-08T06:46:11;7.97;;;6.10;;
12925;SDS011;6529;50.566;9.774;2023-09-08T06:48:36;6.47;;;5.87;;
12925;SDS011;6529;50.566;9.774;2023-09-08T06:51:02;7.07;;;6.33;;
12925;SDS011;6529;50.566;9.774;2023-09-08T06:53:27;6.67;;;5.97;;
12925;SDS011;6529;50.566;9.774;2023-09-08T06:55:53;7.10;;;6.40;;
12925;SDS011;6529;50.566;9.774;2023-09-08T06:58:19;7.13;;;6.43;;
12925;SDS011;6529;50.566;9.774;2023-09-08T07:00:44;7.43;;;6.20;;
12925;SDS011;6529;50.566;9.774;2023-09-08T07:03:10;7.00;;;6.30;;
12925;SDS011;6529;50.566;9.774;2023-09-08T07:05:35;7.17;;;6.30;;
12925;SDS011;6529;50.566;9.774;2023-09-08T07:08:01;8.00;;;6.50;;
12925;SDS011;6529;50.566;9.774;2023-09-08T07:10:27;6.57;;;5.90;;
12925;SDS011;6529;50.566;9.774;2023-09-08T07:12:52;7.10;;;6.37;;
12925;SDS011;6529;50.566;9.774;2023-09-08T07:15:18;7.53;;;6.77;;
12925;SDS011;6529;50.566;9.774;2023-09-08T07:17:43;8.23;;;6.77;;
12925;SDS011;6529;50.566;9.774;2023-09-08T07:20:09;6.97;;;6.27;;
12925;SDS011;6529;50.566;9.774;2023-09-08T07:22:35;6.97;;;6.37;;
12925;SDS011;6529;50.566;9.774;2023-09-08T07:25:00;7.63;;;6.63;;
12925;SDS011;6529;50.566;9.774;2023-09-08T07:27:26;7.90;;;6.63;;
12925;SDS011;6529;50.566;9.774;2023-09-08T07:29:52;7.30;;;6.37;;
12925;SDS011;6529;50.566;9.774;2023-09-08T07:32:17;9.60;;;6.23;;
12925;SDS011;6529;50.566;9.774;2023-09-08T07:34:43;7.27;;;6.50;;
12925;SDS011;6529;50.566;9.774;2023-09-08T07:37:09;7.20;;;6.50;;
12925;SDS011;6529;50.566;9.774;2023-09-08T07:39:35;6.90;;;6.23;;
12925;SDS011;6529;50.566;9.774;2023-09-08T07:42:01;6.90;;;5.90;;
12925;SDS011;6529;50.566;9.774;2023-09-08T07:44:26;7.30;;;6.13;;
12925;SDS011;6529;50.566;9.774;2023-09-08T07:46:52;7.50;;;6.03;;
12925;SDS011;6529;50.566;9.774;2023-09-08T07:49:20;7.67;;;6.60;;
12925;SDS011;6529;50.566;9.774;2023-09-08T07:51:46;7.57;;;6.87;;
12925;SDS011;6529;50.566;9.774;2023-09-08T07:54:12;8.17;;;6.43;;
12925;SDS011;6529;50.566;9.774;2023-09-08T07:56:38;7.23;;;6.53;;
12925;SDS011;6529;50.566;9.774;2023-09-08T07:59:05;7.13;;;6.33;;
12925;SDS011;6529;50.566;9.774;2023-09-08T08:01:31;7.50;;;6.17;;
12925;SDS011;6529;50.566;9.774;2023-09-08T08:03:57;6.88;;;6.22;;
12925;SDS011;6529;50.566;9.774;2023-09-08T08:06:23;7.07;;;6.37;;
12925;SDS011;6529;50.566;9.774;2023-09-08T08:08:49;6.90;;;6.20;;
12925;SDS011;6529;50.566;9.774;2023-09-08T08:11:15;8.65;;;6.53;;
12925;SDS011;6529;50.566;9.774;2023-09-08T08:13:42;6.97;;;5.63;;
12925;SDS011;6529;50.566;9.774;2023-09-08T08:16:08;6.30;;;5.70;;
12925;SDS011;6529;50.566;9.774;2023-09-08T08:18:34;6.05;;;5.47;;
12925;SDS011;6529;50.566;9.774;2023-09-08T08:20:59;8.18;;;5.30;;
12925;SDS011;6529;50.566;9.774;2023-09-08T08:23:25;5.95;;;4.85;;
12925;SDS011;6529;50.566;9.774;2023-09-08T08:25:51;8.13;;;5.60;;
12925;SDS011;6529;50.566;9.774;2023-09-08T08:28:17;6.63;;;5.70;;
12925;SDS011;6529;50.566;9.774;2023-09-08T08:30:42;7.45;;;5.57;;
12925;SDS011;6529;50.566;9.774;2023-09-08T08:33:08;5.72;;;5.22;;
12925;SDS011;6529;50.566;9.774;2023-09-08T08:35:33;5.70;;;4.90;;
12925;SDS011;6529;50.566;9.774;2023-09-08T08:37:59;5.65;;;4.95;;
12925;SDS011;6529;50.566;9.774;2023-09-08T08:40:25;5.28;;;4.78;;
12925;SDS011;6529;50.566;9.774;2023-09-08T08:42:58;5.15;;;4.65;;
12925;SDS011;6529;50.566;9.774;2023-09-08T08:45:24;6.22;;;5.15;;
12925;SDS011;6529;50.566;9.774;2023-09-08T08:47:50;5.63;;;4.80;;
12925;SDS011;6529;50.566;9.774;2023-09-08T08:50:16;6.13;;;5.03;;
12925;SDS011;6529;50.566;9.774;2023-09-08T08:52:43;5.25;;;4.70;;
12925;SDS011;6529;50.566;9.774;2023-09-08T08:55:09;5.20;;;4.70;;
12925;SDS011;6529;50.566;9.774;2023-09-08T08:57:38;5.55;;;4.95;;
12925;SDS011;6529;50.566;9.774;2023-09-08T09:00:10;5.30;;;4.80;;
12925;SDS011;6529;50.566;9.774;2023-09-08T09:02:41;5.85;;;5.25;;
12925;SDS011;6529;50.566;9.774;2023-09-08T09:05:08;7.60;;;5.25;;
12925;SDS011;6529;50.566;9.774;2023-09-08T09:07:38;7.18;;;5.18;;
12925;SDS011;6529;50.566;9.774;2023-09-08T09:10:04;5.57;;;4.85;;
12925;SDS011;6529;50.566;9.774;2023-09-08T09:12:31;5.15;;;4.72;;
12925;SDS011;6529;50.566;9.774;2023-09-08T09:14:58;5.50;;;4.57;;
12925;SDS011;6529;50.566;9.774;2023-09-08T09:17:24;6.68;;;4.72;;
12925;SDS011;6529;50.566;9.774;2023-09-08T09:19:50;5.15;;;4.60;;
12925;SDS011;6529;50.566;9.774;2023-09-08T09:22:19;5.30;;;4.40;;
12925;SDS011;6529;50.566;9.774;2023-09-08T09:24:47;4.93;;;4.43;;
12925;SDS011;6529;50.566;9.774;2023-09-08T09:27:13;5.25;;;4.15;;
12925;SDS011;6529;50.566;9.774;2023-09-08T09:29:45;5.38;;;4.43;;
12925;SDS011;6529;50.566;9.774;2023-09-08T09:32:12;5.32;;;4.45;;
12925;SDS011;6529;50.566;9.774;2023-09-08T09:34:48;4.95;;;4.45;;
12925;SDS011;6529;50.566;9.774;2023-09-08T09:37:16;4.38;;;4.00;;
12925;SDS011;6529;50.566;9.774;2023-09-08T09:39:41;5.78;;;4.43;;
12925;SDS011;6529;50.566;9.774;2023-09-08T09:42:07;4.93;;;4.43;;
12925;SDS011;6529;50.566;9.774;2023-09-08T09:44:32;6.30;;;4.35;;
12925;SDS011;6529;50.566;9.774;2023-09-08T09:46:58;4.72;;;4.32;;
12925;SDS011;6529;50.566;9.774;2023-09-08T09:49:26;4.47;;;4.07;;
12925;SDS011;6529;50.566;9.774;2023-09-08T09:51:56;4.65;;;4.25;;
12925;SDS011;6529;50.566;9.774;2023-09-08T09:54:23;4.43;;;4.03;;
12925;SDS011;6529;50.566;9.774;2023-09-08T09:56:49;4.70;;;4.30;;
12925;SDS011;6529;50.566;9.774;2023-09-08T09:59:16;4.40;;;4.00;;
12925;SDS011;6529;50.566;9.774;2023-09-08T10:01:42;5.90;;;4.03;;
12925;SDS011;6529;50.566;9.774;2023-09-08T10:06:49;6.07;;;4.07;;
12925;SDS011;6529;50.566;9.774;2023-09-08T10:09:16;4.95;;;4.10;;
12925;SDS011;6529;50.566;9.774;2023-09-08T10:14:12;4.50;;;4.10;;
12925;SDS011;6529;50.566;9.774;2023-09-08T10:16:39;5.70;;;4.15;;
12925;SDS011;6529;50.566;9.774;2023-09-08T10:19:08;6.20;;;4.03;;
12925;SDS011;6529;50.566;9.774;2023-09-08T10:21:39;4.65;;;3.78;;
12925;SDS011;6529;50.566;9.774;2023-09-08T10:24:13;4.13;;;3.72;;
12925;SDS011;6529;50.566;9.774;2023-09-08T10:26:51;4.30;;;3.90;;
12925;SDS011;6529;50.566;9.774;2023-09-08T10:29:49;4.60;;;3.83;;
12925;SDS011;6529;50.566;9.774;2023-09-08T10:32:15;4.72;;;4.00;;
12925;SDS011;6529;50.566;9.774;2023-09-08T10:34:43;4.35;;;3.95;;
12925;SDS011;6529;50.566;9.774;2023-09-08T10:37:21;4.72;;;3.88;;
12925;SDS011;6529;50.566;9.774;2023-09-08T10:39:54;4.28;;;3.83;;
12925;SDS011;6529;50.566;9.774;2023-09-08T10:42:21;4.30;;;3.67;;
12925;SDS011;6529;50.566;9.774;2023-09-08T10:44:56;4.90;;;3.90;;
12925;SDS011;6529;50.566;9.774;2023-09-08T10:47:26;5.00;;;3.63;;
12925;SDS011;6529;50.566;9.774;2023-09-08T10:49:59;4.10;;;3.78;;
12925;SDS011;6529;50.566;9.774;2023-09-08T10:52:25;3.88;;;3.47;;
12925;SDS011;6529;50.566;9.774;2023-09-08T10:54:51;4.30;;;3.90;;
12925;SDS011;6529;50.566;9.774;2023-09-08T10:57:20;4.68;;;4.18;;
12925;SDS011;6529;50.566;9.774;2023-09-08T11:05:20;4.22;;;3.80;;
12925;SDS011;6529;50.566;9.774;2023-09-08T11:07:47;4.78;;;3.60;;
12925;SDS011;6529;50.566;9.774;2023-09-08T11:10:17;5.07;;;3.63;;
12925;SDS011;6529;50.566;9.774;2023-09-08T11:12:43;4.53;;;3.60;;
12925;SDS011;6529;50.566;9.774;2023-09-08T11:15:09;4.97;;;3.45;;
12925;SDS011;6529;50.566;9.774;2023-09-08T11:17:35;4.57;;;3.88;;
12925;SDS011;6529;50.566;9.774;2023-09-08T11:20:04;6.22;;;3.95;;
12925;SDS011;6529;50.566;9.774;2023-09-08T11:22:34;3.97;;;3.65;;
12925;SDS011;6529;50.566;9.774;2023-09-08T11:25:00;4.32;;;3.63;;
12925;SDS011;6529;50.566;9.774;2023-09-08T11:27:29;5.55;;;3.85;;
12925;SDS011;6529;50.566;9.774;2023-09-08T11:29:55;4.85;;;3.90;;
12925;SDS011;6529;50.566;9.774;2023-09-08T11:32:22;4.93;;;3.65;;
12925;SDS011;6529;50.566;9.774;2023-09-08T11:34:48;3.95;;;3.58;;
12925;SDS011;6529;50.566;9.774;2023-09-08T11:37:14;4.68;;;3.65;;
12925;SDS011;6529;50.566;9.774;2023-09-08T11:39:43;4.00;;;3.60;;
12925;SDS011;6529;50.566;9.774;2023-09-08T11:42:13;5.80;;;3.67;;
12925;SDS011;6529;50.566;9.774;2023-09-08T11:44:40;4.40;;;3.70;;
12925;SDS011;6529;50.566;9.774;2023-09-08T11:47:06;4.35;;;3.40;;
12925;SDS011;6529;50.566;9.774;2023-09-08T11:49:34;4.95;;;3.60;;
12925;SDS011;6529;50.566;9.774;2023-09-08T11:52:04;4.30;;;3.60;;
12925;SDS011;6529;50.566;9.774;2023-09-08T11:54:36;3.92;;;3.63;;
12925;SDS011;6529;50.566;9.774;2023-09-08T11:57:06;3.80;;;3.50;;
12925;SDS011;6529;50.566;9.774;2023-09-08T11:59:34;4.07;;;3.30;;
12925;SDS011;6529;50.566;9.774;2023-09-08T12:02:00;5.78;;;3.30;;
12925;SDS011;6529;50.566;9.774;2023-09-08T12:04:26;4.10;;;3.70;;
12925;SDS011;6529;50.566;9.774;2023-09-08T12:06:52;5.00;;;3.22;;
12925;SDS011;6529;50.566;9.774;2023-09-08T12:09:20;3.55;;;3.25;;
12925;SDS011;6529;50.566;9.774;2023-09-08T12:11:46;4.47;;;3.17;;
12925;SDS011;6529;50.566;9.774;2023-09-08T12:14:12;3.45;;;3.17;;
12925;SDS011;6529;50.566;9.774;2023-09-08T12:16:39;3.42;;;3.13;;
12925;SDS011;6529;50.566;9.774;2023-09-08T12:19:06;3.35;;;3.05;;
12925;SDS011;6529;50.566;9.774;2023-09-08T12:21:35;4.57;;;3.40;;
12925;SDS011;6529;50.566;9.774;2023-09-08T12:24:18;3.40;;;3.10;;
12925;SDS011;6529;50.566;9.774;2023-09-08T12:26:44;4.57;;;3.25;;
12925;SDS011;6529;50.566;9.774;2023-09-08T12:29:12;3.53;;;3.22;;
12925;SDS011;6529;50.566;9.774;2023-09-08T12:31:38;3.33;;;3.03;;
12925;SDS011;6529;50.566;9.774;2023-09-08T12:34:04;3.50;;;3.20;;
12925;SDS011;6529;50.566;9.774;2023-09-08T12:36:30;3.28;;;2.95;;
12925;SDS011;6529;50.566;9.774;2023-09-08T12:38:55;4.40;;;3.00;;
12925;SDS011;6529;50.566;9.774;2023-09-08T12:41:21;4.10;;;3.03;;
12925;SDS011;6529;50.566;9.774;2023-09-08T12:43:46;3.33;;;3.03;;
12925;SDS011;6529;50.566;9.774;2023-09-08T12:46:12;4.82;;;3.50;;
12925;SDS011;6529;50.566;9.774;2023-09-08T12:48:38;4.55;;;3.22;;
12925;SDS011;6529;50.566;9.774;2023-09-08T12:51:03;5.00;;;3.10;;
12925;SDS011;6529;50.566;9.774;2023-09-08T12:53:35;8.02;;;4.53;;
12925;SDS011;6529;50.566;9.774;2023-09-08T12:56:00;3.95;;;3.30;;
12925;SDS011;6529;50.566;9.774;2023-09-08T12:58:26;4.18;;;3.03;;
12925;SDS011;6529;50.566;9.774;2023-09-08T13:00:53;4.10;;;2.90;;
12925;SDS011;6529;50.566;9.774;2023-09-08T13:03:19;3.28;;;2.95;;
12925;SDS011;6529;50.566;9.774;2023-09-08T13:05:45;3.70;;;3.17;;
12925;SDS011;6529;50.566;9.774;2023-09-08T13:08:10;3.28;;;2.97;;
12925;SDS011;6529;50.566;9.774;2023-09-08T13:10:36;3.50;;;3.05;;
12925;SDS011;6529;50.566;9.774;2023-09-08T13:13:02;4.30;;;3.47;;
12925;SDS011;6529;50.566;9.774;2023-09-08T13:15:29;2.70;;;2.50;;
12925;SDS011;6529;50.566;9.774;2023-09-08T13:17:55;3.22;;;2.92;;
12925;SDS011;6529;50.566;9.774;2023-09-08T13:20:20;2.90;;;2.70;;
12925;SDS011;6529;50.566;9.774;2023-09-08T13:22:46;2.90;;;2.60;;
12925;SDS011;6529;50.566;9.774;2023-09-08T13:25:12;4.18;;;2.70;;
12925;SDS011;6529;50.566;9.774;2023-09-08T13:27:40;3.30;;;2.60;;
12925;SDS011;6529;50.566;9.774;2023-09-08T13:30:09;6.07;;;3.35;;
12925;SDS011;6529;50.566;9.774;2023-09-08T13:32:37;4.18;;;3.15;;
12925;SDS011;6529;50.566;9.774;2023-09-08T13:35:03;2.80;;;2.60;;
12925;SDS011;6529;50.566;9.774;2023-09-08T13:37:30;3.22;;;2.92;;
12925;SDS011;6529;50.566;9.774;2023-09-08T13:39:56;3.25;;;2.95;;
12925;SDS011;6529;50.566;9.774;2023-09-08T13:42:21;3.60;;;2.72;;
12925;SDS011;6529;50.566;9.774;2023-09-08T13:44:47;4.75;;;3.00;;
12925;SDS011;6529;50.566;9.774;2023-09-08T13:47:13;3.30;;;3.00;;
12925;SDS011;6529;50.566;9.774;2023-09-08T13:49:39;3.55;;;3.10;;
12925;SDS011;6529;50.566;9.774;2023-09-08T13:52:04;3.65;;;3.05;;
12925;SDS011;6529;50.566;9.774;2023-09-08T13:54:30;3.53;;;3.22;;
12925;SDS011;6529;50.566;9.774;2023-09-08T13:57:00;3.60;;;3.20;;
12925;SDS011;6529;50.566;9.774;2023-09-08T13:59:27;3.42;;;2.80;;
12925;SDS011;6529;50.566;9.774;2023-09-08T14:01:56;3.65;;;3.30;;
12925;SDS011;6529;50.566;9.774;2023-09-08T14:04:22;3.50;;;2.85;;
12925;SDS011;6529;50.566;9.774;2023-09-08T14:06:49;4.93;;;3.20;;
12925;SDS011;6529;50.566;9.774;2023-09-08T14:09:15;3.80;;;3.20;;
12925;SDS011;6529;50.566;9.774;2023-09-08T14:11:40;4.45;;;3.20;;
12925;SDS011;6529;50.566;9.774;2023-09-08T14:14:06;3.22;;;2.85;;
12925;SDS011;6529;50.566;9.774;2023-09-08T14:16:32;3.28;;;2.97;;
12925;SDS011;6529;50.566;9.774;2023-09-08T14:18:57;3.72;;;3.10;;
12925;SDS011;6529;50.566;9.774;2023-09-08T14:21:23;3.03;;;2.83;;
12925;SDS011;6529;50.566;9.774;2023-09-08T14:23:48;3.30;;;3.00;;
12925;SDS011;6529;50.566;9.774;2023-09-08T14:26:14;4.13;;;3.13;;
12925;SDS011;6529;50.566;9.774;2023-09-08T14:28:40;5.90;;;3.30;;
12925;SDS011;6529;50.566;9.774;2023-09-08T14:31:05;3.85;;;2.90;;
12925;SDS011;6529;50.566;9.774;2023-09-08T14:33:31;3.00;;;2.70;;
12925;SDS011;6529;50.566;9.774;2023-09-08T14:35:57;3.40;;;3.10;;
12925;SDS011;6529;50.566;9.774;2023-09-08T14:38:23;3.63;;;3.10;;
12925;SDS011;6529;50.566;9.774;2023-09-08T14:40:55;3.53;;;3.05;;
12925;SDS011;6529;50.566;9.774;2023-09-08T14:43:25;4.18;;;3.20;;
12925;SDS011;6529;50.566;9.774;2023-09-08T14:45:52;4.50;;;2.92;;
12925;SDS011;6529;50.566;9.774;2023-09-08T14:48:18;4.50;;;3.10;;
12925;SDS011;6529;50.566;9.774;2023-09-08T14:50:44;4.70;;;3.17;;
12925;SDS011;6529;50.566;9.774;2023-09-08T14:53:10;5.43;;;3.15;;
12925;SDS011;6529;50.566;9.774;2023-09-08T14:55:35;4.03;;;3.10;;
12925;SDS011;6529;50.566;9.774;2023-09-08T14:58:01;3.95;;;3.10;;
12925;SDS011;6529;50.566;9.774;2023-09-08T15:00:27;3.75;;;3.08;;
12925;SDS011;6529;50.566;9.774;2023-09-08T15:02:53;3.35;;;3.05;;
12925;SDS011;6529;50.566;9.774;2023-09-08T15:05:18;3.42;;;3.13;;
12925;SDS011;6529;50.566;9.774;2023-09-08T15:07:44;4.28;;;3.00;;
12925;SDS011;6529;50.566;9.774;2023-09-08T15:10:10;3.28;;;3.00;;
12925;SDS011;6529;50.566;9.774;2023-09-08T15:12:35;3.22;;;2.92;;